createdAt,value
2018-04-17T00:01:11.326Z,4.40
2018-04-17T00:03:38.818Z,4.73
2018-04-17T00:06:06.424Z,3.90
2018-04-17T00:08:34.270Z,3.90
2018-04-17T00:11:02.020Z,4.10
2018-04-17T00:13:29.658Z,4.30
2018-04-17T00:15:57.174Z,4.10
2018-04-17T00:18:24.724Z,4.73
2018-04-17T00:20:52.240Z,3.70
2018-04-17T00:23:19.814Z,4.07
2018-04-17T00:25:47.331Z,4.07
2018-04-17T00:28:14.830Z,4.40
2018-04-17T00:30:43.171Z,4.00
2018-04-17T00:33:10.827Z,3.90
2018-04-17T00:35:38.413Z,3.90
2018-04-17T00:38:05.973Z,4.43
2018-04-17T00:40:33.485Z,4.00
2018-04-17T00:43:00.976Z,4.40
2018-04-17T00:45:28.559Z,4.53
2018-04-17T00:47:56.090Z,4.50
2018-04-17T00:50:23.604Z,4.40
2018-04-17T00:52:51.269Z,4.13
2018-04-17T00:55:18.777Z,4.97
2018-04-17T00:57:50.009Z,4.63
2018-04-17T01:00:17.578Z,5.03
2018-04-17T01:02:45.093Z,5.30
2018-04-17T01:05:12.600Z,4.60
2018-04-17T01:07:40.118Z,5.13
2018-04-17T01:10:07.737Z,5.10
2018-04-17T01:12:35.210Z,4.77
2018-04-17T01:15:03.461Z,4.60
2018-04-17T01:17:31.166Z,4.70
2018-04-17T01:19:58.767Z,4.90
2018-04-17T01:22:26.312Z,5.50
2018-04-17T01:24:53.809Z,5.20
2018-04-17T01:27:21.317Z,5.43
2018-04-17T01:29:48.801Z,5.03
2018-04-17T01:32:16.587Z,5.07
2018-04-17T01:34:44.873Z,5.43
2018-04-17T01:37:13.163Z,5.30
2018-04-17T01:39:41.606Z,5.90
2018-04-17T01:42:09.931Z,5.80
2018-04-17T01:44:37.438Z,6.67
2018-04-17T01:47:04.960Z,5.00
2018-04-17T01:49:32.468Z,5.17
2018-04-17T01:52:00.818Z,4.90
2018-04-17T01:54:28.331Z,5.10
2018-04-17T01:56:55.849Z,4.70
2018-04-17T01:59:23.375Z,5.13
2018-04-17T02:01:51.714Z,5.13
2018-04-17T02:04:19.267Z,5.20
2018-04-17T02:06:47.543Z,5.33
2018-04-17T02:09:15.119Z,5.43
2018-04-17T02:11:42.690Z,5.47
2018-04-17T02:14:10.205Z,5.50
2018-04-17T02:16:37.681Z,4.83
2018-04-17T02:19:05.187Z,4.67
2018-04-17T02:21:32.693Z,5.20
2018-04-17T02:24:00.988Z,5.60
2018-04-17T02:26:28.497Z,4.90
2018-04-17T02:28:55.987Z,5.67
2018-04-17T02:31:23.489Z,5.27
2018-04-17T02:33:50.970Z,5.50
2018-04-17T02:36:18.476Z,4.40
2018-04-17T02:38:45.991Z,4.80
2018-04-17T02:41:13.515Z,5.30
2018-04-17T02:43:41.024Z,5.73
2018-04-17T02:46:08.676Z,6.10
2018-04-17T02:48:36.960Z,5.20
2018-04-17T02:51:05.219Z,5.10
2018-04-17T02:53:32.757Z,5.60
2018-04-17T02:56:00.279Z,5.87
2018-04-17T02:58:27.785Z,5.43
2018-04-17T03:00:55.270Z,5.43
2018-04-17T03:03:23.542Z,5.30
2018-04-17T03:05:51.896Z,5.47
2018-04-17T03:08:19.420Z,5.90
2018-04-17T03:10:46.912Z,5.60
2018-04-17T03:13:14.455Z,5.90
2018-04-17T03:15:41.971Z,4.73
2018-04-17T03:18:09.472Z,5.00
2018-04-17T03:20:36.980Z,5.30
2018-04-17T03:23:04.571Z,4.50
2018-04-17T03:25:32.202Z,4.60
2018-04-17T03:27:59.692Z,4.83
2018-04-17T03:30:27.210Z,4.50
2018-04-17T03:32:54.730Z,4.33
2018-04-17T03:35:22.222Z,4.97
2018-04-17T03:37:49.732Z,4.90
2018-04-17T03:40:17.264Z,4.97
2018-04-17T03:42:44.917Z,5.13
2018-04-17T03:45:12.438Z,4.90
2018-04-17T03:47:40.742Z,4.90
2018-04-17T03:50:08.231Z,4.57
2018-04-17T03:52:35.812Z,4.77
2018-04-17T03:55:03.307Z,4.43
2018-04-17T03:57:30.848Z,6.00
2018-04-17T03:59:58.318Z,4.80
2018-04-17T04:02:25.822Z,5.17
2018-04-17T04:04:53.333Z,4.83
2018-04-17T04:07:20.825Z,5.17
2018-04-17T04:09:48.331Z,5.40
2018-04-17T04:12:15.856Z,5.23
2018-04-17T04:14:43.394Z,5.43
2018-04-17T04:17:22.933Z,5.37
2018-04-17T04:20:02.409Z,4.43
2018-04-17T04:22:41.913Z,5.17
2018-04-17T04:28:14.649Z,5.40
2018-04-17T04:30:43.020Z,5.77
2018-04-17T04:33:10.643Z,5.70
2018-04-17T04:35:38.204Z,4.73
2018-04-17T04:38:05.721Z,4.47
2018-04-17T04:40:34.066Z,5.90
2018-04-17T04:43:01.647Z,5.40
2018-04-17T04:45:29.270Z,4.73
2018-04-17T04:47:56.776Z,5.10
2018-04-17T04:50:25.031Z,5.20
2018-04-17T04:52:52.575Z,5.07
2018-04-17T04:55:20.129Z,5.00
2018-04-17T04:57:47.611Z,4.93
2018-04-17T05:00:15.143Z,5.07
2018-04-17T05:02:42.630Z,5.20
2018-04-17T05:05:10.146Z,4.80
2018-04-17T05:07:37.637Z,4.43
2018-04-17T05:10:05.156Z,4.60
2018-04-17T05:12:32.668Z,5.07
2018-04-17T05:15:00.958Z,5.10
2018-04-17T05:17:28.826Z,5.10
2018-04-17T05:19:56.440Z,5.10
2018-04-17T05:22:24.037Z,5.90
2018-04-17T05:24:52.455Z,5.50
2018-04-17T05:27:19.953Z,4.20
2018-04-17T05:29:48.051Z,4.97
2018-04-17T05:32:15.563Z,5.23
2018-04-17T05:34:43.874Z,5.47
2018-04-17T05:37:12.309Z,4.80
2018-04-17T05:39:39.899Z,4.60
2018-04-17T05:42:07.387Z,5.47
2018-04-17T05:44:34.952Z,5.73
2018-04-17T05:47:02.491Z,5.13
2018-04-17T05:49:30.903Z,5.70
2018-04-17T05:51:58.510Z,6.17
2018-04-17T05:54:26.417Z,5.03
2018-04-17T05:56:54.064Z,5.60
2018-04-17T05:59:22.001Z,5.50
2018-04-17T06:01:49.621Z,6.40
2018-04-17T06:04:17.357Z,5.40
2018-04-17T06:06:45.025Z,5.20
2018-04-17T06:09:12.900Z,5.70
2018-04-17T06:11:40.688Z,5.80
2018-04-17T06:14:08.248Z,4.87
2018-04-17T06:16:35.883Z,5.70
2018-04-17T06:19:03.562Z,5.37
2018-04-17T06:21:31.179Z,5.47
2018-04-17T06:23:59.494Z,5.37
2018-04-17T06:26:27.052Z,5.90
2018-04-17T06:28:54.712Z,5.77
2018-04-17T06:31:22.496Z,5.50
2018-04-17T06:33:50.134Z,6.33
2018-04-17T06:36:17.722Z,5.87
2018-04-17T06:38:45.310Z,5.10
2018-04-17T06:41:12.905Z,6.07
2018-04-17T06:43:40.519Z,5.33
2018-04-17T06:46:08.119Z,5.63
2018-04-17T06:48:36.233Z,6.47
2018-04-17T06:51:03.871Z,6.00
2018-04-17T06:53:31.400Z,4.77
2018-04-17T06:55:59.187Z,4.27
2018-04-17T06:58:26.778Z,4.73
2018-04-17T07:00:54.381Z,5.60
2018-04-17T07:03:21.989Z,6.07
2018-04-17T07:05:49.707Z,5.27
2018-04-17T07:08:17.261Z,5.17
2018-04-17T07:10:44.978Z,4.90
2018-04-17T07:13:12.594Z,5.10
2018-04-17T07:15:40.273Z,4.60
2018-04-17T07:18:07.870Z,5.70
2018-04-17T07:20:35.467Z,5.40
2018-04-17T07:23:03.045Z,5.30
2018-04-17T07:25:31.613Z,4.63
2018-04-17T07:27:59.361Z,5.37
2018-04-17T07:30:27.105Z,5.00
2018-04-17T07:32:54.701Z,5.73
2018-04-17T07:35:22.465Z,5.20
2018-04-17T07:37:50.056Z,5.80
2018-04-17T07:40:17.611Z,5.57
2018-04-17T07:42:45.245Z,4.50
2018-04-17T07:45:12.781Z,4.37
2018-04-17T07:47:52.256Z,5.10
2018-04-17T07:50:19.983Z,5.50
2018-04-17T07:52:47.831Z,4.57
2018-04-17T07:55:15.611Z,5.50
2018-04-17T07:57:43.990Z,4.70
2018-04-17T08:00:11.650Z,5.30
2018-04-17T08:02:39.950Z,5.43
2018-04-17T08:05:07.783Z,5.17
2018-04-17T08:07:36.067Z,5.50
2018-04-17T08:10:04.554Z,5.03
2018-04-17T08:12:32.146Z,5.67
2018-04-17T08:14:59.729Z,5.60
2018-04-17T08:17:27.563Z,5.73
2018-04-17T08:22:29.643Z,5.90
2018-04-17T08:24:57.454Z,4.80
2018-04-17T08:27:25.137Z,5.37
2018-04-17T08:29:53.654Z,5.60
2018-04-17T08:32:21.437Z,4.77
2018-04-17T08:34:49.163Z,5.77
2018-04-17T08:37:16.774Z,5.10
2018-04-17T08:39:44.547Z,5.83
2018-04-17T08:42:12.264Z,5.60
2018-04-17T08:44:39.787Z,5.77
2018-04-17T08:47:07.410Z,6.17
2018-04-17T08:49:35.144Z,5.93
2018-04-17T08:52:02.675Z,5.27
2018-04-17T08:54:31.279Z,5.40
2018-04-17T08:56:58.806Z,5.87
2018-04-17T08:59:26.637Z,5.73
2018-04-17T09:01:54.173Z,5.37
2018-04-17T09:04:21.784Z,6.00
2018-04-17T09:06:49.637Z,5.97
2018-04-17T09:09:17.260Z,6.17
2018-04-17T09:11:45.047Z,6.40
2018-04-17T09:14:12.689Z,5.80
2018-04-17T09:16:41.008Z,5.40
2018-04-17T09:19:09.610Z,5.20
2018-04-17T09:21:38.177Z,5.67
2018-04-17T09:24:05.936Z,5.80
2018-04-17T09:26:34.434Z,6.17
2018-04-17T09:29:02.838Z,5.87
2018-04-17T09:31:30.565Z,5.67
2018-04-17T09:33:58.897Z,6.10
2018-04-17T09:36:26.436Z,4.50
2018-04-17T09:38:54.316Z,5.53
2018-04-17T09:41:22.748Z,5.57
2018-04-17T09:43:50.382Z,5.63
2018-04-17T09:46:18.026Z,5.53
2018-04-17T09:48:45.825Z,6.27
2018-04-17T09:51:13.332Z,5.70
2018-04-17T09:53:41.095Z,5.00
2018-04-17T09:56:08.923Z,5.50
2018-04-17T09:58:36.643Z,6.10
2018-04-17T10:01:04.214Z,6.03
2018-04-17T10:03:32.586Z,5.13
2018-04-17T10:06:00.251Z,5.60
2018-04-17T10:08:28.038Z,5.70
2018-04-17T10:10:56.477Z,5.90
2018-04-17T10:13:24.042Z,5.83
2018-04-17T10:15:51.616Z,6.60
2018-04-17T10:18:19.191Z,6.83
2018-04-17T10:20:46.840Z,6.10
2018-04-17T10:23:14.578Z,6.50
2018-04-17T10:25:43.187Z,7.20
2018-04-17T10:28:10.908Z,6.60
2018-04-17T10:30:38.518Z,7.00
2018-04-17T10:33:06.094Z,6.20
2018-04-17T10:35:33.684Z,5.83
2018-04-17T10:38:01.260Z,6.03
2018-04-17T10:40:29.701Z,6.47
2018-04-17T10:42:57.384Z,6.40
2018-04-17T10:45:24.952Z,6.47
2018-04-17T10:47:52.613Z,5.50
2018-04-17T10:50:20.962Z,5.80
2018-04-17T10:52:48.499Z,6.00
2018-04-17T10:55:16.934Z,5.53
2018-04-17T10:57:44.581Z,6.40
2018-04-17T11:00:12.110Z,5.73
2018-04-17T11:02:41.082Z,5.20
2018-04-17T11:05:09.439Z,5.83
2018-04-17T11:07:37.007Z,5.87
2018-04-17T11:10:05.453Z,6.37
2018-04-17T11:12:33.063Z,6.67
2018-04-17T11:15:00.712Z,6.40
2018-04-17T11:17:28.265Z,6.70
2018-04-17T11:19:56.046Z,6.40
2018-04-17T11:22:24.392Z,5.70
2018-04-17T11:24:52.131Z,5.63
2018-04-17T11:27:19.793Z,6.30
2018-04-17T11:29:47.415Z,6.73
2018-04-17T11:32:15.722Z,6.53
2018-04-17T11:34:43.303Z,6.23
2018-04-17T11:37:11.811Z,6.50
2018-04-17T11:39:39.333Z,6.10
2018-04-17T11:42:06.963Z,7.60
2018-04-17T11:44:35.288Z,8.10
2018-04-17T11:47:02.838Z,7.53
2018-04-17T11:49:31.546Z,8.33
2018-04-17T11:52:00.061Z,7.77
2018-04-17T11:54:27.604Z,7.93
2018-04-17T11:56:55.353Z,7.30
2018-04-17T11:59:23.301Z,8.30
2018-04-17T12:01:51.040Z,8.70
2018-04-17T12:04:18.724Z,9.30
2018-04-17T12:06:46.550Z,6.70
2018-04-17T12:09:14.222Z,7.70
2018-04-17T12:11:41.785Z,7.13
2018-04-17T12:14:09.427Z,7.23
2018-04-17T12:16:37.154Z,7.00
2018-04-17T12:19:04.819Z,6.70
2018-04-17T12:21:32.486Z,6.80
2018-04-17T12:24:00.039Z,7.57
2018-04-17T12:26:27.582Z,7.03
2018-04-17T12:28:55.192Z,6.50
2018-04-17T12:31:22.801Z,5.90
2018-04-17T12:33:50.460Z,6.23
2018-04-17T12:36:18.038Z,7.37
2018-04-17T12:38:45.825Z,6.60
2018-04-17T12:41:13.477Z,6.77
2018-04-17T12:43:41.754Z,6.83
2018-04-17T12:46:09.627Z,7.23
2018-04-17T12:48:37.356Z,6.80
2018-04-17T12:51:05.009Z,6.57
2018-04-17T12:53:32.533Z,6.63
2018-04-17T12:56:00.083Z,6.83
2018-04-17T12:58:27.753Z,6.90
2018-04-17T13:00:55.311Z,6.80
2018-04-17T13:03:22.838Z,6.63
2018-04-17T13:05:50.352Z,6.77
2018-04-17T13:08:18.140Z,6.43
2018-04-17T13:10:45.858Z,6.10
2018-04-17T13:13:13.476Z,6.53
2018-04-17T13:15:41.054Z,6.53
2018-04-17T13:18:09.348Z,6.43
2018-04-17T13:20:36.906Z,7.50
2018-04-17T13:23:04.587Z,6.27
2018-04-17T13:25:32.935Z,6.20
2018-04-17T13:28:00.536Z,7.17
2018-04-17T13:30:28.183Z,6.83
2018-04-17T13:32:56.045Z,7.10
2018-04-17T13:35:23.582Z,6.70
2018-04-17T13:37:51.177Z,7.00
2018-04-17T13:40:19.608Z,6.50
2018-04-17T13:42:47.318Z,6.53
2018-04-17T13:45:15.721Z,5.90
2018-04-17T13:47:43.272Z,6.13
2018-04-17T13:50:10.953Z,6.67
2018-04-17T13:52:38.522Z,7.27
2018-04-17T13:55:06.201Z,6.00
2018-04-17T13:57:33.738Z,6.20
2018-04-17T14:00:02.025Z,6.63
2018-04-17T14:02:29.580Z,6.90
2018-04-17T14:04:57.059Z,7.27
2018-04-17T14:07:24.559Z,6.30
2018-04-17T14:09:52.139Z,6.77
2018-04-17T14:12:19.594Z,6.00
2018-04-17T14:14:47.125Z,6.00
2018-04-17T14:17:14.742Z,6.10
2018-04-17T14:19:43.008Z,5.87
2018-04-17T14:22:10.512Z,6.20
2018-04-17T14:24:37.999Z,5.90
2018-04-17T14:27:06.312Z,5.53
2018-04-17T14:29:33.817Z,5.73
2018-04-17T14:32:01.327Z,5.43
2018-04-17T14:34:28.825Z,4.90
2018-04-17T14:36:56.402Z,5.97
2018-04-17T14:39:23.919Z,5.10
2018-04-17T14:41:51.418Z,5.23
2018-04-17T14:44:18.904Z,4.73
2018-04-17T14:46:46.427Z,5.70
2018-04-17T14:49:13.937Z,5.90
2018-04-17T14:51:41.485Z,5.40
2018-04-17T14:54:09.800Z,6.73
2018-04-17T14:56:38.478Z,4.97
2018-04-17T14:59:05.953Z,5.10
2018-04-17T15:01:33.484Z,5.30
2018-04-17T15:04:01.415Z,4.53
2018-04-17T15:06:29.782Z,4.68
2018-04-17T15:08:58.120Z,4.40
2018-04-17T15:11:25.920Z,4.32
2018-04-17T15:13:54.200Z,4.47
2018-04-17T15:16:22.454Z,5.03
2018-04-17T15:18:50.022Z,5.68
2018-04-17T15:21:18.189Z,4.93
2018-04-17T15:23:45.757Z,3.50
2018-04-17T15:26:13.284Z,3.40
2018-04-17T15:28:40.830Z,3.78
2018-04-17T15:31:08.381Z,3.60
2018-04-17T15:33:35.891Z,4.30
2018-04-17T15:36:03.409Z,4.35
2018-04-17T15:38:31.727Z,4.62
2018-04-17T15:40:59.292Z,4.50
2018-04-17T15:43:26.801Z,4.67
2018-04-17T15:45:54.277Z,4.80
2018-04-17T15:48:21.840Z,5.10
2018-04-17T15:50:51.603Z,5.43
2018-04-17T15:53:19.147Z,4.70
2018-04-17T15:55:47.425Z,4.87
2018-04-17T15:58:15.719Z,4.40
2018-04-17T16:00:43.270Z,5.17
2018-04-17T16:03:10.801Z,5.30
2018-04-17T16:05:39.083Z,4.90
2018-04-17T16:08:07.383Z,5.77
2018-04-17T16:10:34.997Z,5.77
2018-04-17T16:13:02.555Z,5.00
2018-04-17T16:15:30.080Z,4.87
2018-04-17T16:17:57.683Z,5.03
2018-04-17T16:20:25.220Z,4.73
2018-04-17T16:22:52.854Z,5.07
2018-04-17T16:25:20.407Z,5.37
2018-04-17T16:27:47.973Z,4.83
2018-04-17T16:30:15.492Z,4.70
2018-04-17T16:32:43.019Z,6.00
2018-04-17T16:35:10.537Z,5.30
2018-04-17T16:37:38.078Z,4.90
2018-04-17T16:40:05.592Z,4.83
2018-04-17T16:42:33.096Z,4.53
2018-04-17T16:45:00.664Z,5.07
2018-04-17T16:47:28.170Z,4.90
2018-04-17T16:49:55.786Z,4.70
2018-04-17T16:52:23.312Z,4.90
2018-04-17T16:54:50.795Z,4.80
2018-04-17T16:57:18.404Z,4.80
2018-04-17T16:59:46.028Z,5.37
2018-04-17T17:02:14.554Z,5.00
2018-04-17T17:04:42.185Z,4.50
2018-04-17T17:07:09.664Z,4.40
2018-04-17T17:09:37.358Z,7.73
2018-04-17T17:12:06.780Z,5.83
2018-04-17T17:14:34.296Z,4.40
2018-04-17T17:17:02.649Z,5.17
2018-04-17T17:19:30.147Z,4.50
2018-04-17T17:21:58.719Z,3.83
2018-04-17T17:24:26.344Z,5.13
2018-04-17T17:26:54.128Z,4.53
2018-04-17T17:29:25.492Z,4.70
2018-04-17T17:31:53.212Z,6.10
2018-04-17T17:34:20.742Z,5.47
2018-04-17T17:36:48.531Z,4.70
2018-04-17T17:39:16.140Z,3.90
2018-04-17T17:41:44.421Z,4.50
2018-04-17T17:44:12.776Z,4.50
2018-04-17T17:46:40.200Z,5.17
2018-04-17T17:49:07.934Z,4.50
2018-04-17T17:51:35.430Z,5.50
2018-04-17T17:54:02.910Z,5.23
2018-04-17T17:56:30.422Z,6.10
2018-04-17T17:58:58.739Z,4.87
2018-04-17T18:01:26.241Z,5.80
2018-04-17T18:03:53.785Z,4.53
2018-04-17T18:06:22.110Z,4.00
2018-04-17T18:08:49.761Z,4.43
2018-04-17T18:11:17.600Z,5.70
2018-04-17T18:13:45.090Z,6.63
2018-04-17T18:16:12.607Z,6.30
2018-04-17T18:18:40.937Z,5.90
2018-04-17T18:21:08.529Z,4.87
2018-04-17T18:23:36.787Z,5.70
2018-04-17T18:26:04.430Z,5.67
2018-04-17T18:28:31.999Z,5.50
2018-04-17T18:30:59.508Z,5.40
2018-04-17T18:33:26.995Z,5.77
2018-04-17T18:35:54.644Z,4.90
2018-04-17T18:38:22.170Z,4.60
2018-04-17T18:40:50.521Z,5.57
2018-04-17T18:43:18.199Z,5.50
2018-04-17T18:45:46.444Z,5.00
2018-04-17T18:48:14.226Z,5.33
2018-04-17T18:50:41.798Z,5.43
2018-04-17T18:53:09.362Z,4.70
2018-04-17T18:55:37.751Z,6.73
2018-04-17T18:58:05.258Z,5.13
2018-04-17T19:00:32.793Z,5.67
2018-04-17T19:03:00.341Z,5.37
2018-04-17T19:05:28.027Z,4.87
2018-04-17T19:07:55.647Z,6.10
2018-04-17T19:10:23.172Z,5.23
2018-04-17T19:12:50.690Z,4.90
2018-04-17T19:15:18.201Z,5.90
2018-04-17T19:17:49.711Z,6.40
2018-04-17T19:20:17.405Z,5.50
2018-04-17T19:22:45.179Z,5.50
2018-04-17T19:25:13.476Z,6.37
2018-04-17T19:27:41.099Z,5.87
2018-04-17T19:30:08.743Z,6.33
2018-04-17T19:32:36.330Z,5.97
2018-04-17T19:35:03.934Z,6.43
2018-04-17T19:37:32.504Z,4.83
2018-04-17T19:40:00.217Z,4.77
2018-04-17T19:42:27.811Z,6.20
2018-04-17T19:44:55.522Z,5.60
2018-04-17T19:47:23.223Z,5.57
2018-04-17T19:49:54.994Z,5.50
2018-04-17T19:52:23.302Z,6.40
2018-04-17T19:54:50.810Z,6.20
2018-04-17T19:57:18.482Z,5.90
2018-04-17T19:59:45.978Z,6.40
2018-04-17T20:02:13.525Z,5.83
2018-04-17T20:04:41.277Z,4.73
2018-04-17T20:07:08.917Z,6.00
2018-04-17T20:09:37.178Z,6.30
2018-04-17T20:12:04.877Z,6.00
2018-04-17T20:14:32.487Z,6.60
2018-04-17T20:17:00.067Z,6.30
2018-04-17T20:19:27.699Z,5.87
2018-04-17T20:21:56.874Z,5.97
2018-04-17T20:24:24.392Z,5.80
2018-04-17T20:26:51.992Z,5.03
2018-04-17T20:29:19.572Z,5.60
2018-04-17T20:31:47.165Z,5.50
2018-04-17T20:34:14.675Z,5.30
2018-04-17T20:36:42.193Z,5.60
2018-04-17T20:39:09.990Z,5.27
2018-04-17T20:41:37.504Z,5.30
2018-04-17T20:44:05.011Z,6.00
2018-04-17T20:46:32.809Z,4.30
2018-04-17T20:49:01.284Z,4.70
2018-04-17T20:51:28.854Z,4.73
2018-04-17T20:53:56.603Z,5.30
2018-04-17T20:56:24.231Z,5.70
2018-04-17T20:58:51.892Z,4.47
2018-04-17T21:01:20.368Z,4.47
2018-04-17T21:03:47.953Z,4.50
2018-04-17T21:06:15.515Z,5.40
2018-04-17T21:08:43.068Z,4.97
2018-04-17T21:11:15.033Z,4.70
2018-04-17T21:13:42.531Z,5.27
2018-04-17T21:16:11.013Z,4.60
2018-04-17T21:18:39.286Z,4.30
2018-04-17T21:21:07.538Z,4.50
2018-04-17T21:23:35.061Z,4.30
2018-04-17T21:26:02.546Z,4.60
2018-04-17T21:28:30.038Z,4.93
2018-04-17T21:30:57.560Z,4.43
2018-04-17T21:33:25.132Z,4.97
2018-04-17T21:35:52.699Z,4.50
2018-04-17T21:38:20.191Z,4.13
2018-04-17T21:40:51.555Z,4.30
2018-04-17T21:43:19.062Z,4.20
2018-04-17T21:45:47.349Z,3.83
2018-04-17T21:48:15.721Z,4.63
2018-04-17T21:50:43.997Z,6.07
2018-04-17T21:53:11.516Z,5.27
2018-04-17T21:55:39.002Z,4.50
2018-04-17T21:58:06.588Z,4.90
2018-04-17T22:00:34.210Z,6.43
2018-04-17T22:03:05.478Z,4.60
2018-04-17T22:05:33.760Z,4.10
2018-04-17T22:08:02.055Z,4.80
2018-04-17T22:10:29.781Z,3.90
2018-04-17T22:12:57.344Z,4.93
2018-04-17T22:15:25.634Z,4.87
2018-04-17T22:17:53.196Z,4.40
2018-04-17T22:20:20.790Z,5.03
2018-04-17T22:22:48.836Z,4.30
2018-04-17T22:25:16.596Z,4.57
2018-04-17T22:27:44.137Z,4.47
2018-04-17T22:30:12.491Z,4.43
2018-04-17T22:32:40.117Z,4.20
2018-04-17T22:35:07.681Z,4.07
2018-04-17T22:37:35.393Z,4.00
2018-04-17T22:40:03.792Z,4.00
2018-04-17T22:42:31.350Z,4.30
2018-04-17T22:44:58.960Z,4.30
2018-04-17T22:47:26.523Z,4.10
2018-04-17T22:49:54.061Z,3.70
2018-04-17T22:52:21.574Z,4.40
2018-04-17T22:54:49.904Z,4.80
2018-04-17T22:57:17.425Z,4.20
2018-04-17T22:59:45.054Z,4.10
2018-04-17T23:02:13.493Z,4.30
2018-04-17T23:04:41.154Z,4.37
2018-04-17T23:07:08.687Z,3.93
2018-04-17T23:09:36.246Z,4.80
2018-04-17T23:12:04.535Z,4.50
2018-04-17T23:14:32.094Z,4.30
2018-04-17T23:16:59.599Z,4.43
2018-04-17T23:19:28.043Z,4.40
2018-04-17T23:21:55.576Z,3.70
2018-04-17T23:24:23.558Z,4.30
2018-04-17T23:26:51.144Z,4.17
2018-04-17T23:29:18.931Z,5.00
2018-04-17T23:31:47.209Z,5.33
2018-04-17T23:34:15.476Z,4.97
2018-04-17T23:36:43.027Z,4.60
2018-04-17T23:39:11.402Z,4.53
2018-04-17T23:41:38.964Z,4.17
2018-04-17T23:44:06.463Z,4.30
2018-04-17T23:46:34.044Z,4.60
2018-04-17T23:49:01.561Z,4.93
2018-04-17T23:51:29.849Z,4.50
2018-04-17T23:53:57.384Z,4.30
2018-04-17T23:56:24.931Z,4.90
2018-04-17T23:58:52.773Z,4.77
